sensor_id;sensor_type;location;lat;lon;timestamp;temperature;humidity
72814;DHT22;60945;48.516;-2.768;2023-07-13T00:02:21;17.70;72.20
72814;DHT22;60945;48.516;-2.768;2023-07-13T00:04:47;17.70;72.20
72814;DHT22;60945;48.516;-2.768;2023-07-13T00:07:13;17.70;72.10
72814;DHT22;60945;48.516;-2.768;2023-07-13T00:09:40;17.70;72.10
72814;DHT22;60945;48.516;-2.768;2023-07-13T00:12:26;17.60;72.30
72814;DHT22;60945;48.516;-2.768;2023-07-13T00:14:52;17.70;72.10
72814;DHT22;60945;48.516;-2.768;2023-07-13T00:17:18;17.70;72.40
72814;DHT22;60945;48.516;-2.768;2023-07-13T00:19:44;17.70;72.20
72814;DHT22;60945;48.516;-2.768;2023-07-13T00:22:09;17.70;72.20
72814;DHT22;60945;48.516;-2.768;2023-07-13T00:24:35;17.70;72.10
72814;DHT22;60945;48.516;-2.768;2023-07-13T00:27:01;17.70;72.20
72814;DHT22;60945;48.516;-2.768;2023-07-13T00:29:27;17.50;72.70
72814;DHT22;60945;48.516;-2.768;2023-07-13T00:31:55;17.50;73.00
72814;DHT22;60945;48.516;-2.768;2023-07-13T00:34:24;17.50;73.00
72814;DHT22;60945;48.516;-2.768;2023-07-13T00:36:49;17.50;73.30
72814;DHT22;60945;48.516;-2.768;2023-07-13T00:39:15;17.50;73.20
72814;DHT22;60945;48.516;-2.768;2023-07-13T00:41:40;17.40;73.90
72814;DHT22;60945;48.516;-2.768;2023-07-13T00:44:14;17.50;73.70
72814;DHT22;60945;48.516;-2.768;2023-07-13T00:46:41;17.50;73.50
72814;DHT22;60945;48.516;-2.768;2023-07-13T00:49:09;17.60;73.70
72814;DHT22;60945;48.516;-2.768;2023-07-13T00:51:41;17.60;73.60
72814;DHT22;60945;48.516;-2.768;2023-07-13T00:54:13;17.60;73.80
72814;DHT22;60945;48.516;-2.768;2023-07-13T00:56:41;17.60;73.80
72814;DHT22;60945;48.516;-2.768;2023-07-13T00:59:08;17.50;74.20
72814;DHT22;60945;48.516;-2.768;2023-07-13T01:01:36;17.30;74.40
72814;DHT22;60945;48.516;-2.768;2023-07-13T01:04:02;17.30;75.10
72814;DHT22;60945;48.516;-2.768;2023-07-13T01:06:28;17.40;75.40
72814;DHT22;60945;48.516;-2.768;2023-07-13T01:08:56;17.30;75.50
72814;DHT22;60945;48.516;-2.768;2023-07-13T01:11:22;17.40;74.70
72814;DHT22;60945;48.516;-2.768;2023-07-13T01:13:49;17.40;74.50
72814;DHT22;60945;48.516;-2.768;2023-07-13T01:16:24;17.50;74.40
72814;DHT22;60945;48.516;-2.768;2023-07-13T01:18:50;17.40;74.40
72814;DHT22;60945;48.516;-2.768;2023-07-13T01:21:15;17.30;74.80
72814;DHT22;60945;48.516;-2.768;2023-07-13T01:23:41;17.40;74.60
72814;DHT22;60945;48.516;-2.768;2023-07-13T01:26:07;17.30;74.90
72814;DHT22;60945;48.516;-2.768;2023-07-13T01:28:33;17.40;74.90
72814;DHT22;60945;48.516;-2.768;2023-07-13T01:31:02;17.30;75.40
72814;DHT22;60945;48.516;-2.768;2023-07-13T01:33:28;17.30;75.40
72814;DHT22;60945;48.516;-2.768;2023-07-13T01:35:54;17.30;76.00
72814;DHT22;60945;48.516;-2.768;2023-07-13T01:38:23;17.30;75.10
72814;DHT22;60945;48.516;-2.768;2023-07-13T01:40:52;17.30;76.10
72814;DHT22;60945;48.516;-2.768;2023-07-13T01:43:19;17.20;76.70
72814;DHT22;60945;48.516;-2.768;2023-07-13T01:45:45;17.10;76.80
72814;DHT22;60945;48.516;-2.768;2023-07-13T01:48:11;17.20;76.10
72814;DHT22;60945;48.516;-2.768;2023-07-13T01:50:37;17.20;75.90
72814;DHT22;60945;48.516;-2.768;2023-07-13T01:53:03;17.20;75.70
72814;DHT22;60945;48.516;-2.768;2023-07-13T01:55:29;17.20;76.10
72814;DHT22;60945;48.516;-2.768;2023-07-13T01:57:56;17.20;76.00
72814;DHT22;60945;48.516;-2.768;2023-07-13T02:00:22;17.20;76.30
72814;DHT22;60945;48.516;-2.768;2023-07-13T02:02:47;17.10;76.70
72814;DHT22;60945;48.516;-2.768;2023-07-13T02:05:14;17.20;77.10
72814;DHT22;60945;48.516;-2.768;2023-07-13T02:07:39;17.20;76.70
72814;DHT22;60945;48.516;-2.768;2023-07-13T02:10:07;17.20;76.20
72814;DHT22;60945;48.516;-2.768;2023-07-13T02:12:33;17.20;76.00
72814;DHT22;60945;48.516;-2.768;2023-07-13T02:14:59;17.20;76.00
72814;DHT22;60945;48.516;-2.768;2023-07-13T02:17:26;17.10;76.60
72814;DHT22;60945;48.516;-2.768;2023-07-13T02:19:52;17.10;76.70
72814;DHT22;60945;48.516;-2.768;2023-07-13T02:22:18;17.10;76.80
72814;DHT22;60945;48.516;-2.768;2023-07-13T02:24:44;17.10;76.90
72814;DHT22;60945;48.516;-2.768;2023-07-13T02:27:09;17.10;76.80
72814;DHT22;60945;48.516;-2.768;2023-07-13T02:29:35;17.10;76.40
72814;DHT22;60945;48.516;-2.768;2023-07-13T02:32:00;17.10;76.50
72814;DHT22;60945;48.516;-2.768;2023-07-13T02:34:26;17.00;77.80
72814;DHT22;60945;48.516;-2.768;2023-07-13T02:36:52;16.90;78.50
72814;DHT22;60945;48.516;-2.768;2023-07-13T02:39:17;16.80;78.90
72814;DHT22;60945;48.516;-2.768;2023-07-13T02:41:43;16.80;79.30
72814;DHT22;60945;48.516;-2.768;2023-07-13T02:44:09;16.80;78.90
72814;DHT22;60945;48.516;-2.768;2023-07-13T02:46:36;16.70;79.00
72814;DHT22;60945;48.516;-2.768;2023-07-13T02:49:03;16.80;79.30
72814;DHT22;60945;48.516;-2.768;2023-07-13T02:51:29;16.80;78.50
72814;DHT22;60945;48.516;-2.768;2023-07-13T02:53:55;16.90;78.90
72814;DHT22;60945;48.516;-2.768;2023-07-13T02:56:26;16.80;78.60
72814;DHT22;60945;48.516;-2.768;2023-07-13T02:58:52;16.80;78.90
72814;DHT22;60945;48.516;-2.768;2023-07-13T03:01:19;16.80;78.60
72814;DHT22;60945;48.516;-2.768;2023-07-13T03:03:45;16.90;78.90
72814;DHT22;60945;48.516;-2.768;2023-07-13T03:06:12;16.80;78.50
72814;DHT22;60945;48.516;-2.768;2023-07-13T03:08:38;16.80;78.20
72814;DHT22;60945;48.516;-2.768;2023-07-13T03:11:11;16.70;78.60
72814;DHT22;60945;48.516;-2.768;2023-07-13T03:13:38;16.80;78.50
72814;DHT22;60945;48.516;-2.768;2023-07-13T03:16:05;16.80;78.30
72814;DHT22;60945;48.516;-2.768;2023-07-13T03:18:31;16.80;78.40
72814;DHT22;60945;48.516;-2.768;2023-07-13T03:20:57;16.80;78.40
72814;DHT22;60945;48.516;-2.768;2023-07-13T03:23:23;16.80;78.40
72814;DHT22;60945;48.516;-2.768;2023-07-13T03:25:50;16.80;78.50
72814;DHT22;60945;48.516;-2.768;2023-07-13T03:28:16;16.70;79.00
72814;DHT22;60945;48.516;-2.768;2023-07-13T03:30:42;16.60;78.80
72814;DHT22;60945;48.516;-2.768;2023-07-13T03:33:08;16.60;79.00
72814;DHT22;60945;48.516;-2.768;2023-07-13T03:35:34;16.80;78.40
72814;DHT22;60945;48.516;-2.768;2023-07-13T03:38:00;16.80;78.60
72814;DHT22;60945;48.516;-2.768;2023-07-13T03:40:28;16.80;78.30
72814;DHT22;60945;48.516;-2.768;2023-07-13T03:42:54;16.90;78.00
72814;DHT22;60945;48.516;-2.768;2023-07-13T03:45:20;16.90;78.40
72814;DHT22;60945;48.516;-2.768;2023-07-13T03:47:45;16.80;78.20
72814;DHT22;60945;48.516;-2.768;2023-07-13T03:50:11;16.80;78.10
72814;DHT22;60945;48.516;-2.768;2023-07-13T03:52:37;16.90;78.50
72814;DHT22;60945;48.516;-2.768;2023-07-13T03:55:03;16.90;77.90
72814;DHT22;60945;48.516;-2.768;2023-07-13T03:57:29;16.70;78.50
72814;DHT22;60945;48.516;-2.768;2023-07-13T03:59:54;16.60;78.70
72814;DHT22;60945;48.516;-2.768;2023-07-13T04:02:20;16.70;78.70
72814;DHT22;60945;48.516;-2.768;2023-07-13T04:04:46;16.70;78.40
72814;DHT22;60945;48.516;-2.768;2023-07-13T04:07:12;16.70;78.90
72814;DHT22;60945;48.516;-2.768;2023-07-13T04:09:37;16.60;79.00
72814;DHT22;60945;48.516;-2.768;2023-07-13T04:12:04;16.70;78.70
72814;DHT22;60945;48.516;-2.768;2023-07-13T04:14:30;16.70;78.90
72814;DHT22;60945;48.516;-2.768;2023-07-13T04:16:55;16.70;79.20
72814;DHT22;60945;48.516;-2.768;2023-07-13T04:19:21;16.60;79.10
72814;DHT22;60945;48.516;-2.768;2023-07-13T04:21:47;16.60;79.60
72814;DHT22;60945;48.516;-2.768;2023-07-13T04:24:13;16.70;79.70
72814;DHT22;60945;48.516;-2.768;2023-07-13T04:26:38;16.70;79.30
72814;DHT22;60945;48.516;-2.768;2023-07-13T04:29:06;16.70;79.10
72814;DHT22;60945;48.516;-2.768;2023-07-13T04:31:32;16.70;79.20
72814;DHT22;60945;48.516;-2.768;2023-07-13T04:33:58;16.80;79.30
72814;DHT22;60945;48.516;-2.768;2023-07-13T04:36:24;16.80;79.00
72814;DHT22;60945;48.516;-2.768;2023-07-13T04:38:52;16.80;79.50
72814;DHT22;60945;48.516;-2.768;2023-07-13T04:41:20;16.80;79.30
72814;DHT22;60945;48.516;-2.768;2023-07-13T04:43:46;16.80;79.50
72814;DHT22;60945;48.516;-2.768;2023-07-13T04:46:14;16.90;78.80
72814;DHT22;60945;48.516;-2.768;2023-07-13T04:48:41;16.90;78.60
72814;DHT22;60945;48.516;-2.768;2023-07-13T04:51:07;16.90;78.20
72814;DHT22;60945;48.516;-2.768;2023-07-13T04:53:33;16.80;78.70
72814;DHT22;60945;48.516;-2.768;2023-07-13T04:56:00;16.80;78.60
72814;DHT22;60945;48.516;-2.768;2023-07-13T04:58:26;16.80;78.50
72814;DHT22;60945;48.516;-2.768;2023-07-13T05:00:53;16.80;78.40
72814;DHT22;60945;48.516;-2.768;2023-07-13T05:03:19;16.80;78.80
72814;DHT22;60945;48.516;-2.768;2023-07-13T05:05:57;16.90;78.60
72814;DHT22;60945;48.516;-2.768;2023-07-13T05:08:23;16.80;78.70
72814;DHT22;60945;48.516;-2.768;2023-07-13T05:10:50;16.90;78.50
72814;DHT22;60945;48.516;-2.768;2023-07-13T05:13:16;16.90;78.60
72814;DHT22;60945;48.516;-2.768;2023-07-13T05:15:41;17.00;78.30
72814;DHT22;60945;48.516;-2.768;2023-07-13T05:18:07;17.10;77.80
72814;DHT22;60945;48.516;-2.768;2023-07-13T05:20:33;16.90;78.20
72814;DHT22;60945;48.516;-2.768;2023-07-13T05:22:58;16.90;78.50
72814;DHT22;60945;48.516;-2.768;2023-07-13T05:25:24;16.90;78.40
72814;DHT22;60945;48.516;-2.768;2023-07-13T05:27:49;17.00;78.00
72814;DHT22;60945;48.516;-2.768;2023-07-13T05:30:15;17.10;77.20
72814;DHT22;60945;48.516;-2.768;2023-07-13T05:32:41;17.20;76.80
72814;DHT22;60945;48.516;-2.768;2023-07-13T05:35:07;17.10;76.80
72814;DHT22;60945;48.516;-2.768;2023-07-13T05:37:33;17.10;77.60
72814;DHT22;60945;48.516;-2.768;2023-07-13T05:39:58;17.20;77.30
72814;DHT22;60945;48.516;-2.768;2023-07-13T05:42:24;17.20;77.00
72814;DHT22;60945;48.516;-2.768;2023-07-13T05:44:50;17.20;76.30
72814;DHT22;60945;48.516;-2.768;2023-07-13T05:47:16;17.10;77.00
72814;DHT22;60945;48.516;-2.768;2023-07-13T05:49:41;17.20;76.80
72814;DHT22;60945;48.516;-2.768;2023-07-13T05:52:07;17.30;76.40
72814;DHT22;60945;48.516;-2.768;2023-07-13T05:54:33;17.30;76.60
72814;DHT22;60945;48.516;-2.768;2023-07-13T05:56:59;17.20;76.20
72814;DHT22;60945;48.516;-2.768;2023-07-13T05:59:24;17.20;76.90
72814;DHT22;60945;48.516;-2.768;2023-07-13T06:01:51;17.10;77.10
72814;DHT22;60945;48.516;-2.768;2023-07-13T06:04:18;17.20;76.80
72814;DHT22;60945;48.516;-2.768;2023-07-13T06:06:44;17.40;75.70
72814;DHT22;60945;48.516;-2.768;2023-07-13T06:09:10;17.50;75.30
72814;DHT22;60945;48.516;-2.768;2023-07-13T06:11:35;17.60;75.10
72814;DHT22;60945;48.516;-2.768;2023-07-13T06:14:01;17.60;75.50
72814;DHT22;60945;48.516;-2.768;2023-07-13T06:16:27;17.60;75.20
72814;DHT22;60945;48.516;-2.768;2023-07-13T06:18:53;17.70;74.70
72814;DHT22;60945;48.516;-2.768;2023-07-13T06:21:20;17.80;73.90
72814;DHT22;60945;48.516;-2.768;2023-07-13T06:23:48;17.90;73.60
72814;DHT22;60945;48.516;-2.768;2023-07-13T06:26:14;17.80;73.90
72814;DHT22;60945;48.516;-2.768;2023-07-13T06:28:40;17.80;74.50
72814;DHT22;60945;48.516;-2.768;2023-07-13T06:31:07;17.90;74.70
72814;DHT22;60945;48.516;-2.768;2023-07-13T06:33:33;18.10;74.50
72814;DHT22;60945;48.516;-2.768;2023-07-13T06:35:59;18.20;73.50
72814;DHT22;60945;48.516;-2.768;2023-07-13T06:38:25;18.30;73.10
72814;DHT22;60945;48.516;-2.768;2023-07-13T06:40:50;18.40;72.50
72814;DHT22;60945;48.516;-2.768;2023-07-13T06:43:16;18.50;71.70
72814;DHT22;60945;48.516;-2.768;2023-07-13T06:45:44;18.60;71.10
72814;DHT22;60945;48.516;-2.768;2023-07-13T06:48:16;18.70;71.00
72814;DHT22;60945;48.516;-2.768;2023-07-13T06:50:42;18.70;70.60
72814;DHT22;60945;48.516;-2.768;2023-07-13T06:53:09;18.70;71.10
72814;DHT22;60945;48.516;-2.768;2023-07-13T06:55:34;18.80;70.40
72814;DHT22;60945;48.516;-2.768;2023-07-13T06:58:00;18.90;70.30
72814;DHT22;60945;48.516;-2.768;2023-07-13T07:00:26;18.90;69.60
72814;DHT22;60945;48.516;-2.768;2023-07-13T07:02:52;19.00;69.20
72814;DHT22;60945;48.516;-2.768;2023-07-13T07:05:17;18.90;69.80
72814;DHT22;60945;48.516;-2.768;2023-07-13T07:07:44;18.70;70.90
72814;DHT22;60945;48.516;-2.768;2023-07-13T07:10:09;18.70;70.80
72814;DHT22;60945;48.516;-2.768;2023-07-13T07:12:35;18.70;70.60
72814;DHT22;60945;48.516;-2.768;2023-07-13T07:15:00;18.70;70.20
72814;DHT22;60945;48.516;-2.768;2023-07-13T07:17:26;18.90;70.40
72814;DHT22;60945;48.516;-2.768;2023-07-13T07:19:52;18.40;71.10
72814;DHT22;60945;48.516;-2.768;2023-07-13T07:22:20;18.70;70.30
72814;DHT22;60945;48.516;-2.768;2023-07-13T07:24:46;18.80;70.80
72814;DHT22;60945;48.516;-2.768;2023-07-13T07:27:11;19.00;70.20
72814;DHT22;60945;48.516;-2.768;2023-07-13T07:29:37;19.00;69.60
72814;DHT22;60945;48.516;-2.768;2023-07-13T07:32:03;19.20;68.60
72814;DHT22;60945;48.516;-2.768;2023-07-13T07:34:30;18.80;69.90
72814;DHT22;60945;48.516;-2.768;2023-07-13T07:37:00;18.70;70.60
72814;DHT22;60945;48.516;-2.768;2023-07-13T07:39:26;19.00;69.40
72814;DHT22;60945;48.516;-2.768;2023-07-13T07:41:52;19.40;68.10
72814;DHT22;60945;48.516;-2.768;2023-07-13T07:44:18;19.40;68.40
72814;DHT22;60945;48.516;-2.768;2023-07-13T07:46:43;19.30;67.80
72814;DHT22;60945;48.516;-2.768;2023-07-13T07:49:09;19.30;68.90
72814;DHT22;60945;48.516;-2.768;2023-07-13T07:51:36;19.80;66.80
72814;DHT22;60945;48.516;-2.768;2023-07-13T07:54:02;20.10;65.60
72814;DHT22;60945;48.516;-2.768;2023-07-13T07:56:28;20.40;64.90
72814;DHT22;60945;48.516;-2.768;2023-07-13T07:58:54;20.60;63.70
72814;DHT22;60945;48.516;-2.768;2023-07-13T08:01:19;20.30;64.20
72814;DHT22;60945;48.516;-2.768;2023-07-13T08:03:45;20.20;65.10
72814;DHT22;60945;48.516;-2.768;2023-07-13T08:06:11;20.40;64.40
72814;DHT22;60945;48.516;-2.768;2023-07-13T08:08:39;20.50;64.10
72814;DHT22;60945;48.516;-2.768;2023-07-13T08:11:06;20.20;64.60
72814;DHT22;60945;48.516;-2.768;2023-07-13T08:13:32;20.40;64.20
72814;DHT22;60945;48.516;-2.768;2023-07-13T08:15:58;20.80;63.10
72814;DHT22;60945;48.516;-2.768;2023-07-13T08:18:24;21.20;61.50
72814;DHT22;60945;48.516;-2.768;2023-07-13T08:20:49;21.70;59.60
72814;DHT22;60945;48.516;-2.768;2023-07-13T08:23:15;21.70;60.00
72814;DHT22;60945;48.516;-2.768;2023-07-13T08:25:42;21.50;60.60
72814;DHT22;60945;48.516;-2.768;2023-07-13T08:28:08;21.40;60.60
72814;DHT22;60945;48.516;-2.768;2023-07-13T08:30:34;21.80;60.40
72814;DHT22;60945;48.516;-2.768;2023-07-13T08:33:01;21.90;58.00
72814;DHT22;60945;48.516;-2.768;2023-07-13T08:35:27;21.70;57.90
72814;DHT22;60945;48.516;-2.768;2023-07-13T08:37:53;21.60;59.50
72814;DHT22;60945;48.516;-2.768;2023-07-13T08:40:24;21.60;58.90
72814;DHT22;60945;48.516;-2.768;2023-07-13T08:42:59;21.70;58.30
72814;DHT22;60945;48.516;-2.768;2023-07-13T08:51:12;20.40;61.80
72814;DHT22;60945;48.516;-2.768;2023-07-13T08:53:46;20.10;61.60
72814;DHT22;60945;48.516;-2.768;2023-07-13T08:56:18;20.30;60.80
72814;DHT22;60945;48.516;-2.768;2023-07-13T08:58:47;20.30;61.70
72814;DHT22;60945;48.516;-2.768;2023-07-13T09:03:51;20.60;59.50
72814;DHT22;60945;48.516;-2.768;2023-07-13T09:06:27;20.50;59.60
72814;DHT22;60945;48.516;-2.768;2023-07-13T09:11:50;20.50;59.80
72814;DHT22;60945;48.516;-2.768;2023-07-13T09:16:48;20.00;61.50
72814;DHT22;60945;48.516;-2.768;2023-07-13T09:19:24;20.10;61.30
72814;DHT22;60945;48.516;-2.768;2023-07-13T09:21:53;20.10;61.90
72814;DHT22;60945;48.516;-2.768;2023-07-13T09:24:41;20.00;64.30
72814;DHT22;60945;48.516;-2.768;2023-07-13T09:27:19;19.70;66.00
72814;DHT22;60945;48.516;-2.768;2023-07-13T09:29:54;19.60;67.30
72814;DHT22;60945;48.516;-2.768;2023-07-13T09:32:24;19.60;67.40
72814;DHT22;60945;48.516;-2.768;2023-07-13T09:34:55;19.90;66.80
72814;DHT22;60945;48.516;-2.768;2023-07-13T09:37:24;20.60;64.50
72814;DHT22;60945;48.516;-2.768;2023-07-13T09:39:53;21.30;61.80
72814;DHT22;60945;48.516;-2.768;2023-07-13T09:42:22;21.80;60.80
72814;DHT22;60945;48.516;-2.768;2023-07-13T09:47:20;22.30;58.20
72814;DHT22;60945;48.516;-2.768;2023-07-13T09:49:54;22.30;57.10
72814;DHT22;60945;48.516;-2.768;2023-07-13T09:52:21;21.00;60.10
72814;DHT22;60945;48.516;-2.768;2023-07-13T09:54:49;21.20;59.70
72814;DHT22;60945;48.516;-2.768;2023-07-13T09:57:18;21.80;57.40
72814;DHT22;60945;48.516;-2.768;2023-07-13T09:59:46;23.00;54.90
72814;DHT22;60945;48.516;-2.768;2023-07-13T10:02:25;23.80;53.00
72814;DHT22;60945;48.516;-2.768;2023-07-13T10:07:29;23.80;53.30
72814;DHT22;60945;48.516;-2.768;2023-07-13T10:09:59;22.70;56.20
72814;DHT22;60945;48.516;-2.768;2023-07-13T10:12:27;24.00;54.10
72814;DHT22;60945;48.516;-2.768;2023-07-13T10:14:58;24.30;53.20
72814;DHT22;60945;48.516;-2.768;2023-07-13T10:17:32;24.20;53.40
72814;DHT22;60945;48.516;-2.768;2023-07-13T10:20:03;24.00;53.20
72814;DHT22;60945;48.516;-2.768;2023-07-13T10:22:57;24.70;52.30
72814;DHT22;60945;48.516;-2.768;2023-07-13T10:25:26;25.80;49.60
72814;DHT22;60945;48.516;-2.768;2023-07-13T10:27:58;25.50;49.30
72814;DHT22;60945;48.516;-2.768;2023-07-13T10:30:27;25.20;50.30
72814;DHT22;60945;48.516;-2.768;2023-07-13T10:32:58;25.60;49.30
72814;DHT22;60945;48.516;-2.768;2023-07-13T10:35:26;26.90;46.80
72814;DHT22;60945;48.516;-2.768;2023-07-13T10:38:03;27.30;45.60
72814;DHT22;60945;48.516;-2.768;2023-07-13T10:40:43;28.20;43.40
72814;DHT22;60945;48.516;-2.768;2023-07-13T10:43:40;28.00;43.90
72814;DHT22;60945;48.516;-2.768;2023-07-13T10:46:08;27.10;45.80
72814;DHT22;60945;48.516;-2.768;2023-07-13T10:48:35;27.20;45.80
72814;DHT22;60945;48.516;-2.768;2023-07-13T10:51:03;27.00;46.10
72814;DHT22;60945;48.516;-2.768;2023-07-13T10:53:34;27.40;45.80
72814;DHT22;60945;48.516;-2.768;2023-07-13T10:58:42;26.10;47.60
72814;DHT22;60945;48.516;-2.768;2023-07-13T11:01:14;26.20;47.30
72814;DHT22;60945;48.516;-2.768;2023-07-13T11:06:16;24.30;52.20
72814;DHT22;60945;48.516;-2.768;2023-07-13T11:21:28;22.00;61.70
72814;DHT22;60945;48.516;-2.768;2023-07-13T11:24:12;22.10;61.60
72814;DHT22;60945;48.516;-2.768;2023-07-13T11:26:41;22.40;60.50
72814;DHT22;60945;48.516;-2.768;2023-07-13T11:29:31;22.60;60.10
72814;DHT22;60945;48.516;-2.768;2023-07-13T11:32:22;23.00;57.90
72814;DHT22;60945;48.516;-2.768;2023-07-13T11:34:48;23.30;57.00
72814;DHT22;60945;48.516;-2.768;2023-07-13T11:37:16;24.00;54.40
72814;DHT22;60945;48.516;-2.768;2023-07-13T11:39:44;23.90;54.10
72814;DHT22;60945;48.516;-2.768;2023-07-13T11:42:17;23.80;54.20
72814;DHT22;60945;48.516;-2.768;2023-07-13T11:44:46;23.70;53.90
72814;DHT22;60945;48.516;-2.768;2023-07-13T11:47:20;23.60;53.80
72814;DHT22;60945;48.516;-2.768;2023-07-13T11:49:53;23.70;52.50
72814;DHT22;60945;48.516;-2.768;2023-07-13T11:52:36;24.90;49.90
72814;DHT22;60945;48.516;-2.768;2023-07-13T11:55:08;26.00;47.20
72814;DHT22;60945;48.516;-2.768;2023-07-13T11:57:47;28.40;43.60
72814;DHT22;60945;48.516;-2.768;2023-07-13T12:00:17;28.60;41.80
72814;DHT22;60945;48.516;-2.768;2023-07-13T12:02:46;28.40;41.50
72814;DHT22;60945;48.516;-2.768;2023-07-13T12:05:15;28.00;42.10
72814;DHT22;60945;48.516;-2.768;2023-07-13T12:07:43;29.70;39.30
72814;DHT22;60945;48.516;-2.768;2023-07-13T12:12:37;30.90;37.60
72814;DHT22;60945;48.516;-2.768;2023-07-13T12:15:10;30.10;37.90
72814;DHT22;60945;48.516;-2.768;2023-07-13T12:17:36;32.10;34.50
72814;DHT22;60945;48.516;-2.768;2023-07-13T12:20:14;33.40;32.50
72814;DHT22;60945;48.516;-2.768;2023-07-13T12:22:49;35.00;31.20
72814;DHT22;60945;48.516;-2.768;2023-07-13T12:25:15;37.70;28.20
72814;DHT22;60945;48.516;-2.768;2023-07-13T12:27:47;39.50;26.00
72814;DHT22;60945;48.516;-2.768;2023-07-13T12:30:29;40.40;25.30
72814;DHT22;60945;48.516;-2.768;2023-07-13T12:33:21;35.70;28.70
72814;DHT22;60945;48.516;-2.768;2023-07-13T12:35:51;30.50;35.60
72814;DHT22;60945;48.516;-2.768;2023-07-13T12:38:21;28.60;39.00
72814;DHT22;60945;48.516;-2.768;2023-07-13T12:40:50;27.90;41.70
72814;DHT22;60945;48.516;-2.768;2023-07-13T12:43:17;27.90;41.00
72814;DHT22;60945;48.516;-2.768;2023-07-13T12:48:21;26.90;43.10
72814;DHT22;60945;48.516;-2.768;2023-07-13T12:50:48;26.60;43.60
72814;DHT22;60945;48.516;-2.768;2023-07-13T12:53:20;26.20;43.90
72814;DHT22;60945;48.516;-2.768;2023-07-13T12:55:52;25.90;45.40
72814;DHT22;60945;48.516;-2.768;2023-07-13T12:58:40;25.40;46.10
72814;DHT22;60945;48.516;-2.768;2023-07-13T13:01:11;25.10;48.10
72814;DHT22;60945;48.516;-2.768;2023-07-13T13:03:46;24.10;50.70
72814;DHT22;60945;48.516;-2.768;2023-07-13T13:08:47;23.50;52.50
72814;DHT22;60945;48.516;-2.768;2023-07-13T13:11:14;23.70;53.00
72814;DHT22;60945;48.516;-2.768;2023-07-13T13:13:44;24.30;50.60
72814;DHT22;60945;48.516;-2.768;2023-07-13T13:16:33;24.90;49.90
72814;DHT22;60945;48.516;-2.768;2023-07-13T13:19:16;25.50;48.50
72814;DHT22;60945;48.516;-2.768;2023-07-13T13:21:44;25.70;48.10
72814;DHT22;60945;48.516;-2.768;2023-07-13T13:24:14;25.40;47.80
72814;DHT22;60945;48.516;-2.768;2023-07-13T13:26:42;25.00;48.90
72814;DHT22;60945;48.516;-2.768;2023-07-13T13:29:17;24.50;49.90
72814;DHT22;60945;48.516;-2.768;2023-07-13T13:31:43;23.90;50.80
72814;DHT22;60945;48.516;-2.768;2023-07-13T13:34:11;23.80;51.50
72814;DHT22;60945;48.516;-2.768;2023-07-13T13:36:37;24.00;52.40
72814;DHT22;60945;48.516;-2.768;2023-07-13T13:39:03;24.00;53.60
72814;DHT22;60945;48.516;-2.768;2023-07-13T13:41:31;24.00;51.80
72814;DHT22;60945;48.516;-2.768;2023-07-13T13:43:57;24.10;51.00
72814;DHT22;60945;48.516;-2.768;2023-07-13T13:46:25;24.10;49.90
72814;DHT22;60945;48.516;-2.768;2023-07-13T13:48:51;24.40;49.10
72814;DHT22;60945;48.516;-2.768;2023-07-13T13:51:21;24.90;48.40
72814;DHT22;60945;48.516;-2.768;2023-07-13T13:53:48;25.20;48.70
72814;DHT22;60945;48.516;-2.768;2023-07-13T13:56:14;25.20;49.20
72814;DHT22;60945;48.516;-2.768;2023-07-13T13:58:41;25.30;48.50
72814;DHT22;60945;48.516;-2.768;2023-07-13T14:01:17;24.80;49.40
72814;DHT22;60945;48.516;-2.768;2023-07-13T14:03:43;24.50;50.10
72814;DHT22;60945;48.516;-2.768;2023-07-13T14:06:13;24.10;51.70
72814;DHT22;60945;48.516;-2.768;2023-07-13T14:08:39;23.40;54.10
72814;DHT22;60945;48.516;-2.768;2023-07-13T14:11:05;23.40;53.90
72814;DHT22;60945;48.516;-2.768;2023-07-13T14:13:36;23.30;53.80
72814;DHT22;60945;48.516;-2.768;2023-07-13T14:16:04;23.50;54.00
72814;DHT22;60945;48.516;-2.768;2023-07-13T14:18:30;23.70;52.10
72814;DHT22;60945;48.516;-2.768;2023-07-13T14:20:56;24.10;51.70
72814;DHT22;60945;48.516;-2.768;2023-07-13T14:23:22;25.60;48.40
72814;DHT22;60945;48.516;-2.768;2023-07-13T14:25:47;26.60;46.60
72814;DHT22;60945;48.516;-2.768;2023-07-13T14:30:45;27.60;43.80
72814;DHT22;60945;48.516;-2.768;2023-07-13T14:33:12;27.80;42.40
72814;DHT22;60945;48.516;-2.768;2023-07-13T14:35:38;27.50;42.80
72814;DHT22;60945;48.516;-2.768;2023-07-13T14:38:05;27.40;43.10
72814;DHT22;60945;48.516;-2.768;2023-07-13T14:40:33;27.70;43.80
72814;DHT22;60945;48.516;-2.768;2023-07-13T14:43:00;27.40;42.80
72814;DHT22;60945;48.516;-2.768;2023-07-13T14:45:25;26.10;45.40
72814;DHT22;60945;48.516;-2.768;2023-07-13T14:47:51;25.70;47.30
72814;DHT22;60945;48.516;-2.768;2023-07-13T14:50:21;24.60;49.20
72814;DHT22;60945;48.516;-2.768;2023-07-13T14:52:47;23.90;51.70
72814;DHT22;60945;48.516;-2.768;2023-07-13T14:55:15;23.30;53.20
72814;DHT22;60945;48.516;-2.768;2023-07-13T14:57:41;23.20;52.20
72814;DHT22;60945;48.516;-2.768;2023-07-13T15:00:17;23.20;52.40
72814;DHT22;60945;48.516;-2.768;2023-07-13T15:02:46;22.50;54.70
72814;DHT22;60945;48.516;-2.768;2023-07-13T15:05:21;23.00;55.00
72814;DHT22;60945;48.516;-2.768;2023-07-13T15:07:49;24.20;51.60
72814;DHT22;60945;48.516;-2.768;2023-07-13T15:10:20;23.90;52.30
72814;DHT22;60945;48.516;-2.768;2023-07-13T15:12:46;23.80;52.90
72814;DHT22;60945;48.516;-2.768;2023-07-13T15:15:13;23.40;54.10
72814;DHT22;60945;48.516;-2.768;2023-07-13T15:17:44;22.70;56.00
72814;DHT22;60945;48.516;-2.768;2023-07-13T15:20:18;22.30;57.50
72814;DHT22;60945;48.516;-2.768;2023-07-13T15:22:44;21.80;59.00
72814;DHT22;60945;48.516;-2.768;2023-07-13T15:25:22;21.50;59.40
72814;DHT22;60945;48.516;-2.768;2023-07-13T15:27:49;21.20;60.60
72814;DHT22;60945;48.516;-2.768;2023-07-13T15:30:15;21.20;61.30
72814;DHT22;60945;48.516;-2.768;2023-07-13T15:32:44;21.30;60.90
72814;DHT22;60945;48.516;-2.768;2023-07-13T15:35:19;21.20;60.90
72814;DHT22;60945;48.516;-2.768;2023-07-13T15:37:45;21.40;61.40
72814;DHT22;60945;48.516;-2.768;2023-07-13T15:40:13;21.70;61.00
72814;DHT22;60945;48.516;-2.768;2023-07-13T15:42:43;22.30;59.90
72814;DHT22;60945;48.516;-2.768;2023-07-13T15:45:20;23.00;57.90
72814;DHT22;60945;48.516;-2.768;2023-07-13T15:47:47;23.10;56.80
72814;DHT22;60945;48.516;-2.768;2023-07-13T15:50:22;22.90;58.00
72814;DHT22;60945;48.516;-2.768;2023-07-13T15:52:58;23.00;58.10
72814;DHT22;60945;48.516;-2.768;2023-07-13T15:55:24;23.10;57.60
72814;DHT22;60945;48.516;-2.768;2023-07-13T15:57:51;23.10;58.40
72814;DHT22;60945;48.516;-2.768;2023-07-13T16:00:23;22.60;58.10
72814;DHT22;60945;48.516;-2.768;2023-07-13T16:02:50;22.30;59.50
72814;DHT22;60945;48.516;-2.768;2023-07-13T16:05:17;22.20;59.20
72814;DHT22;60945;48.516;-2.768;2023-07-13T16:07:44;22.50;58.10
72814;DHT22;60945;48.516;-2.768;2023-07-13T16:10:16;23.10;55.60